createdAt,value
2018-05-15T00:00:45.737Z,14.50
2018-05-15T00:03:13.820Z,14.40
2018-05-15T00:05:42.007Z,14.40
2018-05-15T00:08:11.115Z,14.30
2018-05-15T00:10:39.194Z,14.30
2018-05-15T00:13:07.280Z,14.30
2018-05-15T00:15:35.764Z,14.30
2018-05-15T00:18:15.532Z,14.30
2018-05-15T00:20:43.631Z,14.20
2018-05-15T00:23:11.728Z,14.20
2018-05-15T00:25:39.832Z,14.30
2018-05-15T00:28:08.049Z,14.20
2018-05-15T00:30:36.055Z,14.20
2018-05-15T00:33:04.149Z,14.20
2018-05-15T00:35:33.023Z,14.20
2018-05-15T00:38:05.794Z,14.20
2018-05-15T00:40:35.042Z,14.20
2018-05-15T00:43:04.183Z,14.20
2018-05-15T00:45:32.316Z,14.30
2018-05-15T00:48:00.502Z,14.30
2018-05-15T00:50:28.598Z,14.30
2018-05-15T00:52:56.692Z,14.30
2018-05-15T00:55:36.542Z,14.30
2018-05-15T00:58:04.681Z,14.20
2018-05-15T01:00:32.791Z,14.10
2018-05-15T01:03:01.271Z,14.00
2018-05-15T01:05:29.364Z,14.00
2018-05-15T01:07:57.603Z,14.10
2018-05-15T01:10:25.734Z,14.10
2018-05-15T01:12:53.851Z,14.20
2018-05-15T01:15:21.947Z,14.10
2018-05-15T01:17:50.066Z,14.10
2018-05-15T01:20:18.179Z,14.10
2018-05-15T01:22:46.268Z,14.20
2018-05-15T01:25:15.145Z,14.30
2018-05-15T01:27:47.287Z,14.30
2018-05-15T01:30:15.381Z,14.30
2018-05-15T01:32:43.503Z,14.30
2018-05-15T01:35:11.609Z,14.30
2018-05-15T01:37:39.697Z,14.30
2018-05-15T01:40:07.787Z,14.30
2018-05-15T01:42:36.639Z,14.20
2018-05-15T01:45:04.785Z,14.30
2018-05-15T01:47:33.428Z,14.30
2018-05-15T01:50:02.314Z,14.40
2018-05-15T01:52:30.807Z,14.40
2018-05-15T01:57:29.385Z,14.30
2018-05-15T01:59:57.873Z,14.20
2018-05-15T02:02:26.404Z,14.10
2018-05-15T02:04:54.493Z,14.10
2018-05-15T02:07:22.639Z,14.10
2018-05-15T02:09:51.261Z,14.00
2018-05-15T02:12:19.408Z,14.10
2018-05-15T02:14:47.442Z,14.10
2018-05-15T02:17:15.918Z,14.10
2018-05-15T02:19:44.003Z,14.00
2018-05-15T02:22:12.100Z,14.00
2018-05-15T02:24:40.201Z,14.00
2018-05-15T02:27:08.290Z,14.00
2018-05-15T02:29:37.464Z,14.00
2018-05-15T02:32:05.581Z,14.00
2018-05-15T02:34:33.676Z,14.00
2018-05-15T02:37:01.769Z,14.00
2018-05-15T02:39:33.447Z,14.00
2018-05-15T02:42:12.836Z,14.00
2018-05-15T02:44:40.942Z,13.90
2018-05-15T02:47:10.468Z,14.00
2018-05-15T02:49:38.649Z,13.90
2018-05-15T02:52:06.738Z,13.90
2018-05-15T02:54:34.829Z,13.90
2018-05-15T02:57:02.931Z,13.90
2018-05-15T02:59:31.132Z,13.90
2018-05-15T03:01:59.227Z,13.90
2018-05-15T03:04:27.334Z,13.90
2018-05-15T03:06:55.453Z,13.90
2018-05-15T03:09:23.607Z,14.00
2018-05-15T03:11:52.458Z,14.00
2018-05-15T03:14:21.318Z,14.00
2018-05-15T03:16:49.481Z,14.00
2018-05-15T03:19:19.590Z,14.00
2018-05-15T03:21:47.683Z,14.10
2018-05-15T03:24:15.787Z,14.10
2018-05-15T03:26:43.915Z,14.10
2018-05-15T03:29:12.077Z,14.20
2018-05-15T03:31:40.933Z,14.10
2018-05-15T03:34:09.040Z,14.10
2018-05-15T03:36:37.528Z,14.10
2018-05-15T03:39:05.639Z,14.10
2018-05-15T03:41:34.515Z,14.10
2018-05-15T03:44:02.613Z,14.00
2018-05-15T03:46:31.474Z,14.00
2018-05-15T03:48:59.603Z,14.00
2018-05-15T03:51:27.720Z,13.90
2018-05-15T03:53:55.806Z,13.90
2018-05-15T03:56:23.895Z,13.90
2018-05-15T03:58:52.129Z,13.90
2018-05-15T04:01:32.095Z,13.90
2018-05-15T04:04:12.032Z,14.00
2018-05-15T04:06:51.987Z,15.20
2018-05-15T04:09:20.080Z,14.00
2018-05-15T04:11:48.235Z,14.00
2018-05-15T04:14:17.193Z,14.00
2018-05-15T04:16:45.322Z,14.00
2018-05-15T04:19:13.418Z,14.00
2018-05-15T04:21:41.552Z,14.00
2018-05-15T04:24:09.630Z,14.10
2018-05-15T04:26:37.723Z,14.10
2018-05-15T04:29:05.874Z,14.10
2018-05-15T04:31:34.031Z,14.10
2018-05-15T04:34:02.116Z,14.10
2018-05-15T04:36:30.261Z,14.10
2018-05-15T04:38:58.355Z,14.10
2018-05-15T04:41:26.439Z,14.10
2018-05-15T04:43:54.533Z,14.10
2018-05-15T04:46:22.627Z,14.10
2018-05-15T04:48:51.899Z,14.10
2018-05-15T04:56:18.665Z,14.20
2018-05-15T04:58:47.633Z,14.20
2018-05-15T05:01:15.710Z,14.30
2018-05-15T05:03:43.826Z,14.20
2018-05-15T05:06:11.896Z,14.10
2018-05-15T05:08:40.142Z,14.10
2018-05-15T05:11:08.227Z,14.10
2018-05-15T05:13:37.089Z,14.20
2018-05-15T05:16:05.169Z,14.20
2018-05-15T05:18:33.655Z,14.30
2018-05-15T05:21:02.539Z,14.50
2018-05-15T05:23:30.608Z,14.80
2018-05-15T05:25:58.704Z,15.00
2018-05-15T05:28:27.560Z,15.10
2018-05-15T05:30:55.661Z,17.70
2018-05-15T05:33:23.817Z,15.40
2018-05-15T05:35:51.875Z,15.50
2018-05-15T05:38:20.132Z,15.60
2018-05-15T05:40:48.233Z,15.70
2018-05-15T05:43:16.323Z,15.80
2018-05-15T05:45:44.440Z,15.70
2018-05-15T05:48:32.856Z,15.70
2018-05-15T05:51:06.634Z,15.70
2018-05-15T05:53:34.734Z,15.70
2018-05-15T05:56:03.589Z,15.60
2018-05-15T05:58:32.690Z,15.60
2018-05-15T06:01:00.780Z,15.50
2018-05-15T06:03:28.873Z,15.50
2018-05-15T06:05:56.973Z,15.60
2018-05-15T06:08:25.168Z,15.60
2018-05-15T06:10:53.270Z,15.70
2018-05-15T06:13:21.358Z,15.80
2018-05-15T06:15:49.446Z,15.90
2018-05-15T06:18:18.507Z,15.80
2018-05-15T06:20:46.719Z,15.80
2018-05-15T06:23:14.729Z,15.80
2018-05-15T06:25:42.830Z,15.80
2018-05-15T06:28:10.975Z,15.80
2018-05-15T06:30:39.062Z,15.80
2018-05-15T06:33:07.163Z,15.80
2018-05-15T06:35:36.040Z,15.70
2018-05-15T06:38:06.144Z,15.70
2018-05-15T06:40:34.304Z,15.60
2018-05-15T06:43:02.395Z,15.40
2018-05-15T06:45:30.515Z,15.40
2018-05-15T06:48:00.691Z,15.20
2018-05-15T06:50:28.796Z,15.10
2018-05-15T06:52:56.930Z,14.90
2018-05-15T06:55:25.076Z,14.90
2018-05-15T06:57:55.404Z,14.80
2018-05-15T07:00:23.495Z,14.80
2018-05-15T07:02:51.600Z,14.80
2018-05-15T07:05:19.926Z,15.00
2018-05-15T07:07:49.874Z,15.10
2018-05-15T07:10:17.834Z,15.00
2018-05-15T07:12:47.004Z,15.00
2018-05-15T07:15:15.111Z,14.90
2018-05-15T07:17:43.482Z,14.90
2018-05-15T07:20:11.602Z,14.70
2018-05-15T07:22:39.714Z,14.70
2018-05-15T07:25:07.831Z,14.70
2018-05-15T07:27:36.707Z,14.50
2018-05-15T07:30:04.807Z,14.40
2018-05-15T07:32:32.921Z,14.30
2018-05-15T07:35:01.027Z,14.20
2018-05-15T07:37:29.133Z,14.10
2018-05-15T07:39:57.227Z,14.10
2018-05-15T07:42:25.331Z,14.00
2018-05-15T07:44:54.354Z,14.00
2018-05-15T07:47:22.476Z,13.90
2018-05-15T07:49:50.573Z,13.90
2018-05-15T07:52:18.667Z,14.00
2018-05-15T07:54:47.525Z,14.10
2018-05-15T07:57:15.610Z,14.10
2018-05-15T07:59:43.745Z,14.20
2018-05-15T08:02:12.638Z,14.10
2018-05-15T08:04:40.649Z,14.10
2018-05-15T08:07:08.743Z,14.40
2018-05-15T08:09:38.111Z,14.50
2018-05-15T08:12:06.195Z,14.70
2018-05-15T08:14:34.689Z,14.60
2018-05-15T08:17:02.810Z,14.80
2018-05-15T08:19:31.001Z,14.80
2018-05-15T08:21:59.348Z,15.10
2018-05-15T08:24:28.444Z,15.30
2018-05-15T08:26:56.563Z,15.60
2018-05-15T08:29:24.724Z,15.80
2018-05-15T08:31:53.729Z,15.90
2018-05-15T08:34:21.831Z,16.10
2018-05-15T08:36:50.679Z,16.50
2018-05-15T08:39:18.844Z,16.80
2018-05-15T08:41:47.556Z,16.80
2018-05-15T08:44:15.654Z,16.80
2018-05-15T08:46:44.886Z,16.80
2018-05-15T08:49:13.476Z,16.90
2018-05-15T08:51:41.590Z,17.00
2018-05-15T08:54:09.678Z,17.10
2018-05-15T08:56:39.336Z,17.30
2018-05-15T08:59:08.139Z,17.20
2018-05-15T09:01:36.225Z,17.10
2018-05-15T09:04:04.317Z,17.20
2018-05-15T09:06:32.407Z,17.30
2018-05-15T09:09:01.267Z,17.60
2018-05-15T09:11:29.383Z,17.80
2018-05-15T09:13:57.475Z,18.20
2018-05-15T09:16:25.717Z,18.50
2018-05-15T09:18:53.743Z,18.40
2018-05-15T09:21:21.830Z,18.30
2018-05-15T09:23:50.567Z,18.40
2018-05-15T09:26:20.107Z,18.60
2018-05-15T09:28:48.250Z,18.40
2018-05-15T09:31:16.943Z,18.20
2018-05-15T09:33:45.052Z,18.20
2018-05-15T09:36:14.653Z,17.70
2018-05-15T09:38:42.834Z,17.70
2018-05-15T09:41:10.947Z,18.00
2018-05-15T09:43:54.688Z,18.50
2018-05-15T09:46:22.867Z,18.70
2018-05-15T09:48:51.067Z,18.90
2018-05-15T09:51:19.174Z,19.00
2018-05-15T09:53:48.044Z,19.00
2018-05-15T09:56:16.140Z,19.10
2018-05-15T09:58:44.387Z,19.20
2018-05-15T10:01:12.475Z,19.30
2018-05-15T10:03:40.579Z,19.40
2018-05-15T10:06:08.704Z,19.60
2018-05-15T10:08:36.859Z,19.70
2018-05-15T10:11:04.973Z,19.60
2018-05-15T10:13:33.093Z,19.60
2018-05-15T10:16:01.193Z,19.50
2018-05-15T10:18:29.757Z,18.90
2018-05-15T10:20:57.844Z,18.80
2018-05-15T10:23:25.957Z,18.70
2018-05-15T10:25:54.054Z,18.70
2018-05-15T10:28:22.262Z,18.40
2018-05-15T10:30:50.377Z,18.50
2018-05-15T10:33:18.467Z,18.50
2018-05-15T10:35:46.575Z,18.50
2018-05-15T10:38:14.769Z,18.60
2018-05-15T10:40:42.884Z,18.70
2018-05-15T10:43:10.992Z,18.60
2018-05-15T10:45:39.087Z,18.60
2018-05-15T10:48:07.219Z,18.80
2018-05-15T10:50:35.314Z,19.00
2018-05-15T10:53:03.469Z,19.10
2018-05-15T10:55:31.587Z,19.20
2018-05-15T10:58:00.436Z,19.30
2018-05-15T11:00:29.425Z,19.30
2018-05-15T11:02:58.463Z,19.40
2018-05-15T11:05:26.547Z,19.60
2018-05-15T11:07:55.708Z,20.00
2018-05-15T11:10:23.813Z,19.80
2018-05-15T11:12:53.935Z,19.30
2018-05-15T11:15:22.482Z,19.00
2018-05-15T11:17:50.666Z,19.00
2018-05-15T11:20:30.863Z,19.10
2018-05-15T11:23:11.232Z,19.30
2018-05-15T11:25:39.349Z,19.30
2018-05-15T11:28:07.573Z,19.40
2018-05-15T11:30:36.594Z,19.40
2018-05-15T11:33:05.298Z,19.20
2018-05-15T11:35:34.173Z,18.90
2018-05-15T11:38:02.259Z,19.10
2018-05-15T11:40:30.384Z,19.20
2018-05-15T11:42:59.249Z,19.40
2018-05-15T11:45:27.345Z,19.70
2018-05-15T11:47:56.852Z,19.70
2018-05-15T11:50:25.751Z,19.90
2018-05-15T11:52:53.865Z,20.00
2018-05-15T11:55:21.307Z,20.30
2018-05-15T11:57:49.498Z,20.80
2018-05-15T12:00:17.586Z,21.00
2018-05-15T12:02:45.748Z,21.00
2018-05-15T12:05:13.764Z,21.20
2018-05-15T12:07:42.718Z,21.20
2018-05-15T12:10:11.428Z,21.50
2018-05-15T12:12:40.769Z,21.80
2018-05-15T12:15:08.876Z,21.10
2018-05-15T12:17:37.744Z,20.40
2018-05-15T12:20:06.594Z,20.10
2018-05-15T12:22:41.324Z,19.80
2018-05-15T12:30:38.958Z,18.60
2018-05-15T12:33:07.078Z,17.80
2018-05-15T12:35:36.182Z,17.10
2018-05-15T12:38:05.343Z,16.60
2018-05-15T12:40:33.444Z,16.50
2018-05-15T12:43:01.630Z,16.30
2018-05-15T12:45:30.709Z,16.30
2018-05-15T12:47:59.269Z,16.60
2018-05-15T12:50:38.625Z,16.80
2018-05-15T12:53:06.712Z,17.10
2018-05-15T12:55:58.567Z,17.30
2018-05-15T12:58:26.766Z,17.60
2018-05-15T13:00:55.056Z,17.90
2018-05-15T13:03:26.303Z,18.10
2018-05-15T13:05:54.399Z,18.30
2018-05-15T13:08:35.496Z,18.60
2018-05-15T13:11:12.292Z,19.20
2018-05-15T13:13:41.118Z,20.10
2018-05-15T13:16:09.619Z,20.70
2018-05-15T13:18:38.172Z,20.80
2018-05-15T13:21:06.992Z,20.40
2018-05-15T13:23:35.695Z,20.20
2018-05-15T13:26:05.288Z,20.70
2018-05-15T13:28:35.387Z,21.40
2018-05-15T13:34:11.972Z,22.70
2018-05-15T13:36:39.971Z,23.50
2018-05-15T13:39:10.089Z,24.20
2018-05-15T13:41:38.720Z,23.70
2018-05-15T13:44:10.558Z,24.10
2018-05-15T13:46:38.695Z,25.80
2018-05-15T13:49:08.914Z,26.10
2018-05-15T13:51:37.002Z,26.10
2018-05-15T13:54:05.127Z,25.10
2018-05-15T13:56:33.205Z,23.80
2018-05-15T13:59:04.789Z,23.30
2018-05-15T14:01:34.906Z,23.80
2018-05-15T14:04:02.999Z,24.80
2018-05-15T14:06:31.329Z,25.70
2018-05-15T14:09:05.774Z,26.40
2018-05-15T14:11:33.874Z,26.10
2018-05-15T14:14:06.518Z,25.10
2018-05-15T14:16:34.603Z,24.90
2018-05-15T14:19:02.709Z,25.70
2018-05-15T14:21:30.815Z,25.70
2018-05-15T14:23:58.979Z,25.40
2018-05-15T14:26:27.058Z,24.00
2018-05-15T14:28:55.136Z,23.90
2018-05-15T14:31:25.485Z,24.60
2018-05-15T14:33:53.508Z,25.40
2018-05-15T14:36:21.606Z,25.40
2018-05-15T14:38:50.795Z,26.50
2018-05-15T14:41:19.717Z,26.70
2018-05-15T14:43:48.983Z,27.20
2018-05-15T14:46:17.340Z,29.60
2018-05-15T14:48:46.596Z,28.50
2018-05-15T14:51:31.123Z,26.80
2018-05-15T14:54:06.122Z,26.50
2018-05-15T14:56:34.253Z,25.20
2018-05-15T14:59:06.020Z,25.40
2018-05-15T15:01:34.097Z,25.50
2018-05-15T15:04:02.921Z,28.90
2018-05-15T15:06:31.763Z,29.70
2018-05-15T15:08:59.967Z,28.90
2018-05-15T15:11:28.034Z,28.80
2018-05-15T15:13:56.111Z,29.60
2018-05-15T15:16:24.212Z,31.30
2018-05-15T15:18:54.695Z,30.00
2018-05-15T15:21:22.772Z,30.00
2018-05-15T15:23:50.856Z,30.10
2018-05-15T15:26:18.933Z,27.90
2018-05-15T15:28:47.005Z,27.70
2018-05-15T15:31:15.091Z,28.60
2018-05-15T15:33:44.492Z,27.00
2018-05-15T15:36:13.373Z,24.40
2018-05-15T15:38:42.531Z,22.90
2018-05-15T15:41:10.622Z,22.80
2018-05-15T15:43:38.806Z,21.50
2018-05-15T15:46:07.589Z,20.90
2018-05-15T15:48:37.382Z,20.90
2018-05-15T15:51:05.466Z,21.00
2018-05-15T15:53:33.568Z,21.50
2018-05-15T15:56:02.432Z,21.70
2018-05-15T15:58:30.565Z,21.70
2018-05-15T16:00:58.677Z,21.50
2018-05-15T16:03:26.761Z,21.30
2018-05-15T16:05:54.844Z,21.30
2018-05-15T16:08:24.930Z,21.30
2018-05-15T16:10:53.051Z,21.20
2018-05-15T16:13:21.151Z,21.20
2018-05-15T16:15:49.625Z,21.20
2018-05-15T16:18:17.799Z,21.20
2018-05-15T16:20:45.882Z,21.20
2018-05-15T16:23:14.403Z,21.00
2018-05-15T16:25:42.499Z,20.80
2018-05-15T16:28:10.727Z,20.70
2018-05-15T16:30:38.811Z,20.70
2018-05-15T16:33:06.914Z,20.70
2018-05-15T16:35:37.077Z,20.50
2018-05-15T16:38:05.292Z,20.40
2018-05-15T16:40:34.339Z,20.20
2018-05-15T16:43:03.227Z,20.00
2018-05-15T16:45:32.328Z,19.80
2018-05-15T16:48:01.741Z,19.70
2018-05-15T16:50:30.303Z,19.50
2018-05-15T16:52:58.383Z,19.30
2018-05-15T16:55:26.480Z,19.10
2018-05-15T16:57:55.563Z,19.00
2018-05-15T17:00:24.779Z,19.00
2018-05-15T17:02:52.951Z,18.90
2018-05-15T17:05:21.818Z,18.70
2018-05-15T17:07:49.936Z,18.40
2018-05-15T17:10:18.470Z,18.30
2018-05-15T17:12:47.340Z,17.90
2018-05-15T17:15:15.438Z,17.70
2018-05-15T17:17:43.647Z,17.50
2018-05-15T17:20:11.743Z,17.40
2018-05-15T17:22:40.199Z,17.40
2018-05-15T17:25:10.740Z,17.40
2018-05-15T17:27:38.827Z,17.40
2018-05-15T17:30:07.704Z,17.40
2018-05-15T17:32:35.820Z,17.20
2018-05-15T17:35:04.529Z,17.10
2018-05-15T17:37:32.761Z,17.10
2018-05-15T17:40:01.712Z,16.90
2018-05-15T17:42:29.787Z,16.80
2018-05-15T17:44:57.867Z,16.70
2018-05-15T17:47:27.389Z,16.50
2018-05-15T17:49:55.402Z,16.40
2018-05-15T17:52:23.496Z,16.40
2018-05-15T17:54:51.971Z,16.30
2018-05-15T17:57:20.152Z,16.30
2018-05-15T17:59:49.095Z,16.40
2018-05-15T18:04:46.852Z,16.40
2018-05-15T18:07:16.025Z,16.30
2018-05-15T18:12:20.594Z,16.30
2018-05-15T18:14:48.711Z,16.20
2018-05-15T18:17:18.054Z,16.20
2018-05-15T18:19:46.155Z,16.10
2018-05-15T18:22:14.255Z,16.10
2018-05-15T18:24:42.354Z,16.10
2018-05-15T18:27:10.498Z,15.80
2018-05-15T18:29:39.534Z,15.60
2018-05-15T18:32:07.640Z,15.50
2018-05-15T18:34:36.501Z,15.40
2018-05-15T18:37:04.595Z,15.30
2018-05-15T18:39:34.280Z,15.10
2018-05-15T18:42:03.246Z,15.00
2018-05-15T18:44:31.344Z,15.00
2018-05-15T18:46:59.428Z,15.00
2018-05-15T18:49:27.549Z,15.00
2018-05-15T18:51:57.123Z,14.90
2018-05-15T18:54:25.983Z,14.80
2018-05-15T18:56:54.078Z,14.70
2018-05-15T18:59:22.205Z,14.70
2018-05-15T19:01:50.285Z,14.60
2018-05-15T19:04:18.522Z,14.60
2018-05-15T19:06:47.460Z,14.60
2018-05-15T19:09:16.931Z,14.60
2018-05-15T19:11:45.657Z,14.40
2018-05-15T19:14:13.796Z,14.30
2018-05-15T19:16:41.885Z,14.20
2018-05-15T19:19:10.069Z,14.10
2018-05-15T19:21:38.914Z,14.10
2018-05-15T19:24:08.788Z,14.00
2018-05-15T19:26:36.872Z,14.10
2018-05-15T19:29:05.836Z,14.10
2018-05-15T19:31:37.304Z,14.00
2018-05-15T19:34:11.727Z,13.90
2018-05-15T19:36:46.843Z,13.90
2018-05-15T19:39:19.713Z,13.80
2018-05-15T19:41:49.275Z,13.90
2018-05-15T19:44:23.143Z,13.80
2018-05-15T19:46:58.689Z,13.80
2018-05-15T19:49:26.888Z,13.90
2018-05-15T19:51:55.754Z,13.90
2018-05-15T19:54:24.627Z,13.80
2018-05-15T19:56:53.922Z,13.90
2018-05-15T19:59:22.020Z,13.80
2018-05-15T20:01:50.147Z,13.80
2018-05-15T20:04:18.228Z,13.80
2018-05-15T20:06:46.316Z,13.70
2018-05-15T20:09:14.494Z,13.70
2018-05-15T20:11:42.579Z,13.60
2018-05-15T20:14:10.680Z,13.60
2018-05-15T20:16:38.774Z,13.60
2018-05-15T20:19:07.024Z,13.60
2018-05-15T20:21:35.261Z,13.70
2018-05-15T20:24:04.166Z,13.70
2018-05-15T20:26:32.315Z,13.70
2018-05-15T20:29:01.012Z,13.60
2018-05-15T20:31:29.029Z,13.70
2018-05-15T20:33:57.164Z,13.80
2018-05-15T20:36:26.189Z,13.80
2018-05-15T20:38:54.257Z,13.80
2018-05-15T20:41:22.390Z,13.80
2018-05-15T20:43:50.473Z,13.80
2018-05-15T20:46:18.594Z,13.80
2018-05-15T20:48:47.770Z,13.80
2018-05-15T20:51:15.879Z,13.80
2018-05-15T20:53:44.756Z,13.80
2018-05-15T20:56:12.841Z,13.80
2018-05-15T20:58:41.094Z,13.70
2018-05-15T21:01:09.193Z,13.70
2018-05-15T21:03:38.061Z,13.60
2018-05-15T21:06:06.158Z,13.60
2018-05-15T21:08:34.361Z,13.60
2018-05-15T21:11:02.461Z,13.60
2018-05-15T21:13:31.317Z,13.60
2018-05-15T21:16:00.153Z,13.50
2018-05-15T21:25:58.846Z,13.40
2018-05-15T21:28:27.165Z,13.40
2018-05-15T21:30:59.345Z,13.40
2018-05-15T21:33:27.589Z,13.40
2018-05-15T21:35:55.697Z,13.40
2018-05-15T21:38:24.178Z,13.40
2018-05-15T21:40:52.262Z,13.40
2018-05-15T21:43:21.159Z,13.50
2018-05-15T21:45:49.259Z,13.50
2018-05-15T21:48:19.089Z,13.50
2018-05-15T21:50:48.455Z,13.50
2018-05-15T21:53:19.597Z,13.50
2018-05-15T21:55:48.094Z,13.50
2018-05-15T21:58:18.228Z,13.50
2018-05-15T22:00:46.341Z,13.50
2018-05-15T22:03:15.093Z,13.40
2018-05-15T22:05:43.172Z,13.30
2018-05-15T22:08:14.103Z,13.20
2018-05-15T22:10:42.203Z,13.20
2018-05-15T22:13:22.172Z,13.20
2018-05-15T22:16:02.122Z,13.20
2018-05-15T22:18:42.495Z,13.10
2018-05-15T22:21:22.432Z,13.10
2018-05-15T22:23:50.215Z,13.10
2018-05-15T22:26:18.297Z,13.10
2018-05-15T22:28:46.579Z,13.20
2018-05-15T22:31:14.739Z,13.20
2018-05-15T22:33:43.057Z,13.10
2018-05-15T22:36:11.214Z,13.10
2018-05-15T22:38:44.932Z,13.10
2018-05-15T22:41:13.020Z,13.10
2018-05-15T22:43:41.135Z,13.00
2018-05-15T22:46:09.540Z,13.00
2018-05-15T22:48:39.925Z,12.90
2018-05-15T22:51:08.798Z,13.00
2018-05-15T22:53:37.282Z,12.90
2018-05-15T22:56:06.976Z,12.90
2018-05-15T22:58:40.647Z,12.80
2018-05-15T23:01:08.832Z,12.90
2018-05-15T23:03:36.992Z,12.90
2018-05-15T23:06:05.126Z,12.90
2018-05-15T23:08:33.989Z,12.90
2018-05-15T23:11:02.088Z,12.90
2018-05-15T23:13:30.171Z,12.90
2018-05-15T23:15:58.277Z,12.90
2018-05-15T23:18:26.478Z,12.90
2018-05-15T23:20:54.663Z,12.90
2018-05-15T23:23:22.694Z,12.90
2018-05-15T23:25:50.781Z,12.80
2018-05-15T23:28:22.246Z,12.80
2018-05-15T23:30:50.329Z,12.80
2018-05-15T23:33:18.407Z,12.70
2018-05-15T23:35:46.496Z,12.80
2018-05-15T23:38:14.709Z,12.70
2018-05-15T23:40:42.800Z,12.70
2018-05-15T23:43:10.885Z,12.70
2018-05-15T23:45:38.987Z,12.70
2018-05-15T23:48:07.472Z,12.70
2018-05-15T23:50:36.332Z,12.70
2018-05-15T23:53:04.422Z,12.60
2018-05-15T23:55:32.519Z,12.60
2018-05-15T23:58:00.725Z,12.60
